sensor_id;sensor_type;location;lat;lon;timestamp;pressure;altitude;pressure_sealevel;temperature;humidity
5238;BME280;2639;49.700;7.962;2023-01-29T04:03:18;100031.25;;;-0.09;81.92
5238;BME280;2639;49.700;7.962;2023-01-29T04:06:31;100023.47;;;-0.11;83.01
5238;BME280;2639;49.700;7.962;2023-01-29T04:09:48;100018.78;;;-0.20;81.86
5238;BME280;2639;49.700;7.962;2023-01-29T04:13:03;100022.44;;;-0.37;82.15
5238;BME280;2639;49.700;7.962;2023-01-29T04:16:17;100027.47;;;-0.37;82.98
5238;BME280;2639;49.700;7.962;2023-01-29T04:19:38;100020.53;;;-0.32;83.20
5238;BME280;2639;49.700;7.962;2023-01-29T04:22:50;100014.06;;;-0.30;82.76
5238;BME280;2639;49.700;7.962;2023-01-29T04:26:16;100022.94;;;-0.39;83.07
5238;BME280;2639;49.700;7.962;2023-01-29T04:29:37;100001.41;;;-0.43;83.11
5238;BME280;2639;49.700;7.962;2023-01-29T04:33:00;99994.53;;;-0.44;84.12
5238;BME280;2639;49.700;7.962;2023-01-29T04:36:22;99992.44;;;-0.41;84.56
5238;BME280;2639;49.700;7.962;2023-01-29T04:39:42;100000.00;;;-0.41;84.29
5238;BME280;2639;49.700;7.962;2023-01-29T04:42:59;100001.31;;;-0.37;84.12
5238;BME280;2639;49.700;7.962;2023-01-29T04:46:14;99998.00;;;-0.31;84.02
5238;BME280;2639;49.700;7.962;2023-01-29T04:49:31;100004.78;;;-0.37;83.81
5238;BME280;2639;49.700;7.962;2023-01-29T04:52:48;100000.91;;;-0.40;84.16
5238;BME280;2639;49.700;7.962;2023-01-29T04:56:06;99994.53;;;-0.44;84.73
5238;BME280;2639;49.700;7.962;2023-01-29T04:59:21;100002.03;;;-0.38;84.28
5238;BME280;2639;49.700;7.962;2023-01-29T05:02:35;100007.69;;;-0.34;84.86
5238;BME280;2639;49.700;7.962;2023-01-29T05:05:47;100016.66;;;-0.36;84.69
5238;BME280;2639;49.700;7.962;2023-01-29T05:09:01;100009.50;;;-0.33;84.57
5238;BME280;2639;49.700;7.962;2023-01-29T05:12:13;100010.78;;;-0.24;84.96
5238;BME280;2639;49.700;7.962;2023-01-29T05:15:28;100008.38;;;-0.16;84.81
5238;BME280;2639;49.700;7.962;2023-01-29T05:18:38;100019.81;;;-0.13;84.42
5238;BME280;2639;49.700;7.962;2023-01-29T05:21:49;100012.47;;;-0.11;84.14
5238;BME280;2639;49.700;7.962;2023-01-29T05:25:00;100014.75;;;-0.13;84.05
5238;BME280;2639;49.700;7.962;2023-01-29T05:28:09;100016.56;;;-0.12;83.43
5238;BME280;2639;49.700;7.962;2023-01-29T05:31:23;100018.47;;;-0.16;84.40
5238;BME280;2639;49.700;7.962;2023-01-29T05:34:33;100015.81;;;-0.24;83.45
5238;BME280;2639;49.700;7.962;2023-01-29T05:37:43;99999.91;;;-0.35;82.53
5238;BME280;2639;49.700;7.962;2023-01-29T05:40:57;100013.75;;;-0.39;82.67
5238;BME280;2639;49.700;7.962;2023-01-29T05:44:08;100004.47;;;-0.33;83.43
5238;BME280;2639;49.700;7.962;2023-01-29T05:47:18;99997.34;;;-0.30;83.28
5238;BME280;2639;49.700;7.962;2023-01-29T05:50:28;100002.38;;;-0.30;83.03
5238;BME280;2639;49.700;7.962;2023-01-29T05:53:37;100003.78;;;-0.32;82.87
5238;BME280;2639;49.700;7.962;2023-01-29T05:56:48;100007.13;;;-0.26;82.95
5238;BME280;2639;49.700;7.962;2023-01-29T05:59:58;99990.72;;;-0.35;82.00
5238;BME280;2639;49.700;7.962;2023-01-29T08:14:37;100030.47;;;-0.58;81.13
5238;BME280;2639;49.700;7.962;2023-01-29T08:17:47;100026.38;;;-0.63;81.24
5238;BME280;2639;49.700;7.962;2023-01-29T08:21:05;100026.97;;;-0.71;81.01
5238;BME280;2639;49.700;7.962;2023-01-29T08:24:15;100030.66;;;-0.75;82.05
5238;BME280;2639;49.700;7.962;2023-01-29T08:27:25;100028.09;;;-0.93;82.63
5238;BME280;2639;49.700;7.962;2023-01-29T08:30:36;100030.03;;;-1.03;82.76
5238;BME280;2639;49.700;7.962;2023-01-29T08:33:46;100035.22;;;-0.96;83.47
5238;BME280;2639;49.700;7.962;2023-01-29T08:36:55;100034.19;;;-1.04;83.30
5238;BME280;2639;49.700;7.962;2023-01-29T08:40:06;100041.34;;;-0.89;82.12
5238;BME280;2639;49.700;7.962;2023-01-29T08:43:16;100039.84;;;-0.75;82.09
5238;BME280;2639;49.700;7.962;2023-01-29T08:46:27;100030.66;;;-0.75;81.08
5238;BME280;2639;49.700;7.962;2023-01-29T08:49:37;100022.53;;;-0.85;79.95
5238;BME280;2639;49.700;7.962;2023-01-29T08:52:47;100013.41;;;-0.90;80.42
5238;BME280;2639;49.700;7.962;2023-01-29T08:55:56;100006.00;;;-1.07;79.66
5238;BME280;2639;49.700;7.962;2023-01-29T08:59:06;99998.41;;;-1.01;80.83
5238;BME280;2639;49.700;7.962;2023-01-29T09:02:17;99993.81;;;-0.80;79.72
5238;BME280;2639;49.700;7.962;2023-01-29T09:05:27;99989.31;;;-0.70;78.62
5238;BME280;2639;49.700;7.962;2023-01-29T09:08:37;100004.97;;;-0.35;77.54
5238;BME280;2639;49.700;7.962;2023-01-29T09:11:47;100026.34;;;-0.20;77.73
5238;BME280;2639;49.700;7.962;2023-01-29T09:14:57;100029.63;;;-0.09;76.94
5238;BME280;2639;49.700;7.962;2023-01-29T09:18:08;100026.09;;;0.28;76.03
5238;BME280;2639;49.700;7.962;2023-01-29T09:21:17;100032.34;;;0.55;74.16
5238;BME280;2639;49.700;7.962;2023-01-29T09:24:27;100028.03;;;0.80;72.96
5238;BME280;2639;49.700;7.962;2023-01-29T09:27:37;100042.19;;;0.72;71.78
5238;BME280;2639;49.700;7.962;2023-01-29T09:30:46;100048.56;;;0.63;73.17
5238;BME280;2639;49.700;7.962;2023-01-29T09:33:58;100053.09;;;0.66;73.70
5238;BME280;2639;49.700;7.962;2023-01-29T09:37:07;100047.75;;;0.70;73.43
5238;BME280;2639;49.700;7.962;2023-01-29T09:40:29;100050.03;;;0.55;73.82
5238;BME280;2639;49.700;7.962;2023-01-29T09:43:46;100053.97;;;0.53;73.49
5238;BME280;2639;49.700;7.962;2023-01-29T09:47:00;100053.44;;;0.43;72.86
5238;BME280;2639;49.700;7.962;2023-01-29T09:50:18;100047.00;;;0.45;73.42
5238;BME280;2639;49.700;7.962;2023-01-29T09:53:34;100044.47;;;0.45;74.37
5238;BME280;2639;49.700;7.962;2023-01-29T09:56:49;100055.75;;;0.41;73.02
5238;BME280;2639;49.700;7.962;2023-01-29T10:00:01;100046.38;;;0.53;73.22
5238;BME280;2639;49.700;7.962;2023-01-29T10:03:26;100050.28;;;0.70;73.89
5238;BME280;2639;49.700;7.962;2023-01-29T10:06:59;100059.69;;;0.71;72.33
5238;BME280;2639;49.700;7.962;2023-01-29T10:10:20;100059.78;;;0.78;72.10
5238;BME280;2639;49.700;7.962;2023-01-29T10:13:47;100049.19;;;0.93;72.52
5238;BME280;2639;49.700;7.962;2023-01-29T10:17:07;100052.50;;;0.99;72.43
5238;BME280;2639;49.700;7.962;2023-01-29T10:20:43;100048.06;;;0.91;72.06
5238;BME280;2639;49.700;7.962;2023-01-29T10:24:08;100039.56;;;0.78;71.94
5238;BME280;2639;49.700;7.962;2023-01-29T10:27:21;100037.97;;;0.91;72.40
5238;BME280;2639;49.700;7.962;2023-01-29T10:30:33;100034.13;;;1.00;72.26
5238;BME280;2639;49.700;7.962;2023-01-29T10:33:48;100032.38;;;1.07;71.49
5238;BME280;2639;49.700;7.962;2023-01-29T10:37:15;100034.31;;;1.15;71.11
5238;BME280;2639;49.700;7.962;2023-01-29T10:40:33;100036.09;;;1.41;70.75
5238;BME280;2639;49.700;7.962;2023-01-29T10:43:54;100026.78;;;1.47;69.93
5238;BME280;2639;49.700;7.962;2023-01-29T10:47:24;100016.75;;;1.55;69.78
5238;BME280;2639;49.700;7.962;2023-01-29T10:50:46;100002.22;;;1.79;70.46
5238;BME280;2639;49.700;7.962;2023-01-29T10:54:09;99979.22;;;1.78;70.15
5238;BME280;2639;49.700;7.962;2023-01-29T10:57:37;99980.69;;;1.30;70.61
5238;BME280;2639;49.700;7.962;2023-01-29T11:00:49;99979.78;;;1.04;72.12
5238;BME280;2639;49.700;7.962;2023-01-29T11:04:01;99964.41;;;1.28;72.17
5238;BME280;2639;49.700;7.962;2023-01-29T11:07:12;99956.41;;;1.58;70.47
5238;BME280;2639;49.700;7.962;2023-01-29T11:10:24;99944.22;;;1.88;69.59
5238;BME280;2639;49.700;7.962;2023-01-29T11:13:39;99929.75;;;2.07;69.01
5238;BME280;2639;49.700;7.962;2023-01-29T11:16:51;99926.75;;;1.97;68.35
5238;BME280;2639;49.700;7.962;2023-01-29T11:20:00;99919.69;;;1.94;68.28
5238;BME280;2639;49.700;7.962;2023-01-29T11:23:25;99913.78;;;2.01;67.91
5238;BME280;2639;49.700;7.962;2023-01-29T11:26:38;99919.47;;;2.13;67.31
5238;BME280;2639;49.700;7.962;2023-01-29T11:29:51;99898.56;;;2.21;67.90
5238;BME280;2639;49.700;7.962;2023-01-29T11:33:08;99896.94;;;2.21;68.24
5238;BME280;2639;49.700;7.962;2023-01-29T11:36:23;99890.06;;;2.27;68.85
5238;BME280;2639;49.700;7.962;2023-01-29T11:39:42;99895.81;;;2.19;68.38
5238;BME280;2639;49.700;7.962;2023-01-29T11:42:52;99895.09;;;2.20;67.92
5238;BME280;2639;49.700;7.962;2023-01-29T11:46:05;99897.03;;;1.88;68.81
5238;BME280;2639;49.700;7.962;2023-01-29T11:49:24;99893.41;;;1.86;70.21
5238;BME280;2639;49.700;7.962;2023-01-29T11:52:39;99883.78;;;1.84;69.47
5238;BME280;2639;49.700;7.962;2023-01-29T11:55:49;99885.59;;;2.05;68.30
5238;BME280;2639;49.700;7.962;2023-01-29T11:59:00;99870.78;;;2.08;67.58
5238;BME280;2639;49.700;7.962;2023-01-29T12:02:19;99873.44;;;2.29;67.92
5238;BME280;2639;49.700;7.962;2023-01-29T12:05:30;99870.66;;;2.48;67.00
5238;BME280;2639;49.700;7.962;2023-01-29T12:08:39;99871.44;;;2.54;66.89
5238;BME280;2639;49.700;7.962;2023-01-29T12:11:49;99871.41;;;2.47;66.39
5238;BME280;2639;49.700;7.962;2023-01-29T12:15:04;99865.97;;;2.44;66.19
5238;BME280;2639;49.700;7.962;2023-01-29T12:18:22;99863.78;;;2.20;66.98
5238;BME280;2639;49.700;7.962;2023-01-29T12:21:42;99855.94;;;2.11;69.15
5238;BME280;2639;49.700;7.962;2023-01-29T12:24:58;99848.09;;;1.95;68.63
5238;BME280;2639;49.700;7.962;2023-01-29T12:28:21;99839.44;;;1.80;68.54
5238;BME280;2639;49.700;7.962;2023-01-29T12:32:00;99836.53;;;1.77;68.84
5238;BME280;2639;49.700;7.962;2023-01-29T12:35:18;99837.69;;;1.86;69.99
5238;BME280;2639;49.700;7.962;2023-01-29T12:38:30;99830.16;;;1.94;69.14
5238;BME280;2639;49.700;7.962;2023-01-29T12:41:42;99811.56;;;2.00;69.12
5238;BME280;2639;49.700;7.962;2023-01-29T12:44:56;99802.38;;;2.08;69.54
5238;BME280;2639;49.700;7.962;2023-01-29T12:57:06;99800.84;;;2.23;68.91
5238;BME280;2639;49.700;7.962;2023-01-29T13:00:20;99796.69;;;2.23;69.96
5238;BME280;2639;49.700;7.962;2023-01-29T13:03:36;99797.41;;;2.22;70.58
5238;BME280;2639;49.700;7.962;2023-01-29T13:06:52;99795.94;;;2.17;69.83
5238;BME280;2639;49.700;7.962;2023-01-29T13:10:08;99781.41;;;2.09;69.58
5238;BME280;2639;49.700;7.962;2023-01-29T13:13:27;99778.81;;;2.02;69.80
5238;BME280;2639;49.700;7.962;2023-01-29T13:16:42;99779.88;;;1.97;70.02
5238;BME280;2639;49.700;7.962;2023-01-29T13:19:56;99786.31;;;1.87;70.58
5238;BME280;2639;49.700;7.962;2023-01-29T13:23:14;99775.34;;;1.94;71.22
5238;BME280;2639;49.700;7.962;2023-01-29T13:26:25;99778.81;;;2.02;70.38
5238;BME280;2639;49.700;7.962;2023-01-29T13:29:36;99778.78;;;1.95;70.97
5238;BME280;2639;49.700;7.962;2023-01-29T13:32:49;99774.28;;;1.99;70.92
5238;BME280;2639;49.700;7.962;2023-01-29T13:36:01;99756.59;;;2.06;70.34
5238;BME280;2639;49.700;7.962;2023-01-29T13:39:19;99760.00;;;2.00;70.48
5238;BME280;2639;49.700;7.962;2023-01-29T13:42:38;99760.31;;;1.88;70.97
5238;BME280;2639;49.700;7.962;2023-01-29T13:45:51;99752.63;;;1.74;71.73
5238;BME280;2639;49.700;7.962;2023-01-29T13:49:01;99756.06;;;1.75;71.74
5238;BME280;2639;49.700;7.962;2023-01-29T13:52:15;99758.75;;;1.76;72.30
5238;BME280;2639;49.700;7.962;2023-01-29T13:55:28;99757.72;;;1.81;72.83
5238;BME280;2639;49.700;7.962;2023-01-29T13:58:51;99747.81;;;1.90;72.37
5238;BME280;2639;49.700;7.962;2023-01-29T14:02:18;99751.84;;;1.95;72.48
5238;BME280;2639;49.700;7.962;2023-01-29T14:05:37;99742.63;;;1.96;72.13
5238;BME280;2639;49.700;7.962;2023-01-29T14:08:47;99735.06;;;2.03;71.96
5238;BME280;2639;49.700;7.962;2023-01-29T14:11:57;99728.09;;;1.87;71.36
5238;BME280;2639;49.700;7.962;2023-01-29T14:15:16;99724.84;;;1.88;71.18
5238;BME280;2639;49.700;7.962;2023-01-29T14:18:31;99716.09;;;1.72;72.36
5238;BME280;2639;49.700;7.962;2023-01-29T14:21:48;99717.41;;;1.56;73.05
5238;BME280;2639;49.700;7.962;2023-01-29T14:25:01;99711.53;;;1.42;74.29
5238;BME280;2639;49.700;7.962;2023-01-29T14:28:15;99713.56;;;1.25;75.01
5238;BME280;2639;49.700;7.962;2023-01-29T14:31:36;99713.56;;;1.25;75.68
5238;BME280;2639;49.700;7.962;2023-01-29T14:34:50;99725.44;;;1.19;76.22
5238;BME280;2639;49.700;7.962;2023-01-29T14:38:05;99716.13;;;1.32;74.79
5238;BME280;2639;49.700;7.962;2023-01-29T14:41:24;99716.53;;;1.35;74.30
5238;BME280;2639;49.700;7.962;2023-01-29T14:44:46;99714.44;;;1.45;74.13
5238;BME280;2639;49.700;7.962;2023-01-29T14:47:59;99714.34;;;1.31;74.84
5238;BME280;2639;49.700;7.962;2023-01-29T14:51:13;99712.91;;;1.33;75.01
5238;BME280;2639;49.700;7.962;2023-01-29T14:54:25;99701.63;;;1.44;74.54
5238;BME280;2639;49.700;7.962;2023-01-29T14:57:38;99706.78;;;1.38;74.74
5238;BME280;2639;49.700;7.962;2023-01-29T15:00:50;99707.56;;;1.44;74.60
5238;BME280;2639;49.700;7.962;2023-01-29T15:04:03;99707.59;;;1.24;75.06
5238;BME280;2639;49.700;7.962;2023-01-29T15:07:24;99699.69;;;1.09;75.77
5238;BME280;2639;49.700;7.962;2023-01-29T15:10:38;99704.25;;;0.91;76.66
5238;BME280;2639;49.700;7.962;2023-01-29T15:13:52;99705.53;;;0.95;76.78
5238;BME280;2639;49.700;7.962;2023-01-29T15:17:15;99694.69;;;0.76;77.53
5238;BME280;2639;49.700;7.962;2023-01-29T15:20:29;99691.41;;;0.90;77.62
5238;BME280;2639;49.700;7.962;2023-01-29T15:23:41;99699.56;;;0.74;78.58
5238;BME280;2639;49.700;7.962;2023-01-29T15:26:52;99687.44;;;0.72;78.34
5238;BME280;2639;49.700;7.962;2023-01-29T15:30:05;99687.25;;;0.70;78.97
5238;BME280;2639;49.700;7.962;2023-01-29T15:33:15;99686.72;;;0.73;78.37
5238;BME280;2639;49.700;7.962;2023-01-29T15:36:27;99678.19;;;0.65;78.32
5238;BME280;2639;49.700;7.962;2023-01-29T15:39:42;99677.78;;;0.62;79.16
5238;BME280;2639;49.700;7.962;2023-01-29T15:42:52;99677.78;;;0.62;79.29
5238;BME280;2639;49.700;7.962;2023-01-29T15:46:08;99675.84;;;0.67;79.26
5238;BME280;2639;49.700;7.962;2023-01-29T15:49:24;99679.53;;;0.76;78.71
5238;BME280;2639;49.700;7.962;2023-01-29T15:52:38;99674.03;;;0.66;79.44
5238;BME280;2639;49.700;7.962;2023-01-29T15:55:49;99670.16;;;0.75;79.25
5238;BME280;2639;49.700;7.962;2023-01-29T15:59:02;99668.31;;;0.74;78.96
5238;BME280;2639;49.700;7.962;2023-01-29T16:02:20;99667.72;;;0.69;79.65
5238;BME280;2639;49.700;7.962;2023-01-29T16:05:30;99661.72;;;0.61;79.28
5238;BME280;2639;49.700;7.962;2023-01-29T16:08:42;99650.06;;;0.49;80.16
5238;BME280;2639;49.700;7.962;2023-01-29T16:11:57;99655.78;;;0.48;79.88
5238;BME280;2639;49.700;7.962;2023-01-29T16:15:20;99647.47;;;0.42;81.04
5238;BME280;2639;49.700;7.962;2023-01-29T16:18:32;99647.03;;;0.39;80.93
5238;BME280;2639;49.700;7.962;2023-01-29T16:21:44;99651.31;;;0.33;81.11
5238;BME280;2639;49.700;7.962;2023-01-29T16:24:54;99650.53;;;0.27;81.54
5238;BME280;2639;49.700;7.962;2023-01-29T16:28:06;99652.06;;;0.19;82.33
5238;BME280;2639;49.700;7.962;2023-01-29T16:31:21;99657.03;;;0.12;82.32
5238;BME280;2639;49.700;7.962;2023-01-29T16:34:34;99655.66;;;0.01;82.91
5238;BME280;2639;49.700;7.962;2023-01-29T16:37:46;99655.56;;;-0.06;83.56
5238;BME280;2639;49.700;7.962;2023-01-29T16:41:06;99656.06;;;-0.09;84.37
5238;BME280;2639;49.700;7.962;2023-01-29T16:44:32;99656.88;;;-0.15;84.75
5238;BME280;2639;49.700;7.962;2023-01-29T16:47:43;99654.28;;;-0.23;85.00
5238;BME280;2639;49.700;7.962;2023-01-29T16:51:02;99657.69;;;-0.35;86.21
5238;BME280;2639;49.700;7.962;2023-01-29T16:54:13;99651.88;;;-0.41;87.35
5238;BME280;2639;49.700;7.962;2023-01-29T16:57:28;99663.75;;;-0.40;87.14
5238;BME280;2639;49.700;7.962;2023-01-29T17:00:43;99672.72;;;-0.42;87.53
5238;BME280;2639;49.700;7.962;2023-01-29T17:03:58;99677.69;;;-0.49;88.18
5238;BME280;2639;49.700;7.962;2023-01-29T17:07:13;99684.13;;;-0.51;88.37
5238;BME280;2639;49.700;7.962;2023-01-29T17:10:27;99688.38;;;-0.57;88.81
5238;BME280;2639;49.700;7.962;2023-01-29T17:13:39;99685.31;;;-0.68;90.38
5238;BME280;2639;49.700;7.962;2023-01-29T17:16:53;99691.78;;;-0.70;91.09
5238;BME280;2639;49.700;7.962;2023-01-29T17:20:11;99691.78;;;-0.70;90.04
5238;BME280;2639;49.700;7.962;2023-01-29T17:23:22;99703.31;;;-0.72;89.61
5238;BME280;2639;49.700;7.962;2023-01-29T17:26:32;99700.66;;;-0.79;89.45
5238;BME280;2639;49.700;7.962;2023-01-29T17:29:42;99712.16;;;-0.81;90.07
5238;BME280;2639;49.700;7.962;2023-01-29T17:32:53;99712.94;;;-0.88;91.15
5238;BME280;2639;49.700;7.962;2023-01-29T17:36:03;99715.25;;;-0.89;90.51
5238;BME280;2639;49.700;7.962;2023-01-29T17:39:16;99709.09;;;-0.91;90.50
5238;BME280;2639;49.700;7.962;2023-01-29T17:42:26;99710.50;;;-0.93;90.51
5238;BME280;2639;49.700;7.962;2023-01-29T17:45:37;99712.50;;;-1.03;92.36
5238;BME280;2639;49.700;7.962;2023-01-29T17:48:48;99710.25;;;-1.08;92.42
5238;BME280;2639;49.700;7.962;2023-01-29T17:51:58;99703.56;;;-1.20;93.14
5238;BME280;2639;49.700;7.962;2023-01-29T17:55:09;99707.22;;;-1.18;93.74
5238;BME280;2639;49.700;7.962;2023-01-29T17:58:21;99699.78;;;-1.11;93.08
5238;BME280;2639;49.700;7.962;2023-01-29T18:01:31;99703.41;;;-1.09;93.02
5238;BME280;2639;49.700;7.962;2023-01-29T18:04:42;99701.50;;;-1.04;92.19
5238;BME280;2639;49.700;7.962;2023-01-29T18:07:52;99703.47;;;-1.14;92.60
5238;BME280;2639;49.700;7.962;2023-01-29T18:11:02;99700.69;;;-1.10;93.58
5238;BME280;2639;49.700;7.962;2023-01-29T18:14:12;99703.25;;;-0.97;92.66
5238;BME280;2639;49.700;7.962;2023-01-29T18:17:22;99702.13;;;-0.99;91.85
5238;BME280;2639;49.700;7.962;2023-01-29T18:20:33;99700.19;;;-1.08;92.30
5238;BME280;2639;49.700;7.962;2023-01-29T18:23:45;99702.91;;;-1.06;92.50
5238;BME280;2639;49.700;7.962;2023-01-29T18:26:55;99687.47;;;-1.15;93.25
5238;BME280;2639;49.700;7.962;2023-01-29T18:30:06;99685.78;;;-1.09;92.82
5238;BME280;2639;49.700;7.962;2023-01-29T18:33:16;99684.00;;;-0.97;91.77
5238;BME280;2639;49.700;7.962;2023-01-29T18:36:30;99683.88;;;-0.91;91.52
5238;BME280;2639;49.700;7.962;2023-01-29T18:39:39;99679.28;;;-0.88;91.09
5238;BME280;2639;49.700;7.962;2023-01-29T18:42:49;99682.19;;;-0.85;90.55
5238;BME280;2639;49.700;7.962;2023-01-29T18:45:59;99682.47;;;-0.89;91.46
5238;BME280;2639;49.700;7.962;2023-01-29T18:49:08;99671.38;;;-0.84;90.23
5238;BME280;2639;49.700;7.962;2023-01-29T18:52:20;99668.06;;;-0.90;91.01
5238;BME280;2639;49.700;7.962;2023-01-29T18:55:30;99673.91;;;-0.84;90.12
5238;BME280;2639;49.700;7.962;2023-01-29T18:58:41;99671.59;;;-0.82;89.99
5238;BME280;2639;49.700;7.962;2023-01-29T19:02:00;99663.66;;;-0.86;89.52
5238;BME280;2639;49.700;7.962;2023-01-29T19:05:10;99662.72;;;-0.86;90.46
5238;BME280;2639;49.700;7.962;2023-01-29T19:08:21;99664.84;;;-0.89;90.67
5238;BME280;2639;49.700;7.962;2023-01-29T19:11:31;99661.31;;;-0.84;90.13
5238;BME280;2639;49.700;7.962;2023-01-29T19:14:40;99660.72;;;-0.76;89.48
5238;BME280;2639;49.700;7.962;2023-01-29T19:17:50;99660.72;;;-0.76;89.82
5238;BME280;2639;49.700;7.962;2023-01-29T19:21:07;99661.91;;;-0.92;90.25
5238;BME280;2639;49.700;7.962;2023-01-29T19:24:19;99659.09;;;-0.88;91.00
5238;BME280;2639;49.700;7.962;2023-01-29T19:27:28;99654.88;;;-0.82;90.06
5238;BME280;2639;49.700;7.962;2023-01-29T19:30:39;99648.41;;;-0.80;89.69
5238;BME280;2639;49.700;7.962;2023-01-29T19:33:48;99647.19;;;-0.89;90.03
5238;BME280;2639;49.700;7.962;2023-01-29T19:36:58;99658.69;;;-0.91;90.50
5238;BME280;2639;49.700;7.962;2023-01-29T19:40:10;99662.09;;;-0.91;90.58
5238;BME280;2639;49.700;7.962;2023-01-29T19:43:19;99658.69;;;-0.91;90.78
5238;BME280;2639;49.700;7.962;2023-01-29T19:46:29;99640.25;;;-0.85;90.91
5238;BME280;2639;49.700;7.962;2023-01-29T19:49:39;99643.56;;;-0.91;90.13
5238;BME280;2639;49.700;7.962;2023-01-29T19:52:49;99643.47;;;-0.86;90.99
5238;BME280;2639;49.700;7.962;2023-01-29T19:56:03;99638.34;;;-0.80;90.06
5238;BME280;2639;49.700;7.962;2023-01-29T19:59:13;99638.34;;;-0.93;90.71
5238;BME280;2639;49.700;7.962;2023-01-29T20:02:23;99635.59;;;-0.94;90.74
5238;BME280;2639;49.700;7.962;2023-01-29T20:05:34;99630.75;;;-1.06;91.21
5238;BME280;2639;49.700;7.962;2023-01-29T20:08:45;99634.59;;;-1.02;91.96
5238;BME280;2639;49.700;7.962;2023-01-29T20:11:56;99644.28;;;-0.92;91.59
5238;BME280;2639;49.700;7.962;2023-01-29T20:15:06;99645.38;;;-0.90;91.12
5238;BME280;2639;49.700;7.962;2023-01-29T20:18:16;99645.97;;;-0.98;91.22
5238;BME280;2639;49.700;7.962;2023-01-29T20:21:26;99644.00;;;-0.88;90.64
5238;BME280;2639;49.700;7.962;2023-01-29T20:24:36;99639.41;;;-0.91;90.90
5238;BME280;2639;49.700;7.962;2023-01-29T20:27:50;99635.38;;;-0.96;91.15
5238;BME280;2639;49.700;7.962;2023-01-29T20:31:00;99637.72;;;-0.97;91.47
5238;BME280;2639;49.700;7.962;2023-01-29T20:34:11;99652.13;;;-0.96;91.83
5238;BME280;2639;49.700;7.962;2023-01-29T20:37:20;99647.38;;;-1.00;91.36
5238;BME280;2639;49.700;7.962;2023-01-29T20:40:30;99651.91;;;-0.98;91.49
5238;BME280;2639;49.700;7.962;2023-01-29T20:43:41;99639.75;;;-0.82;91.36
5238;BME280;2639;49.700;7.962;2023-01-29T20:46:51;99634.41;;;-0.78;90.47
5238;BME280;2639;49.700;7.962;2023-01-29T20:50:01;99626.34;;;-0.75;90.97
5238;BME280;2639;49.700;7.962;2023-01-29T20:53:16;99612.22;;;-0.68;91.08
5238;BME280;2639;49.700;7.962;2023-01-29T20:56:25;99613.41;;;-0.58;90.96
5238;BME280;2639;49.700;7.962;2023-01-29T20:59:50;99609.91;;;-0.53;91.13
5238;BME280;2639;49.700;7.962;2023-01-29T21:03:00;99592.66;;;-0.50;90.39
5238;BME280;2639;49.700;7.962;2023-01-29T21:06:10;99581.91;;;-0.42;90.69
5238;BME280;2639;49.700;7.962;2023-01-29T21:09:19;99589.50;;;-0.42;90.92
5238;BME280;2639;49.700;7.962;2023-01-29T21:12:29;99576.91;;;-0.55;93.04
5238;BME280;2639;49.700;7.962;2023-01-29T21:15:42;99575.50;;;-0.53;92.82
